Aviation Digital Data Service (ADDS)

Output produced by METARs form (1226 UTC 22 March 2019)
found at http://www.aviationweather.gov/metar/data/
 
METAR text: KFSD 221156Z 08003KT 10SM CLR M03/M04 A3021 RMK AO2 SLP243 T10281044 10017 21033 53005
Conditions at: KFSD (SIOUX FALLS , SD, US) observed 1156 UTC 22 March 2019
Temperature: -2.8°C (27°F)
Dewpoint: -4.4°C (24°F) [RH = 89%]
Pressure (altimeter): 30.21 inches Hg (1023.1 mb)
[Sea-level pressure: 1024.3 mb]
Winds: from the E (80 degrees) at 3 MPH (3 knots; 1.5 m/s)
Visibility: 10 or more miles (16+ km)
Ceiling: at least 12,000 feet AGL
Clouds: sky clear below 12,000 feet AGL
Weather: no significant weather observed at this time

METAR text: KFSD 221056Z 01005KT 10SM CLR M02/M04 A3020 RMK AO2 SLP238 T10171044
Conditions at: KFSD (SIOUX FALLS , SD, US) observed 1056 UTC 22 March 2019
Temperature: -1.7°C (29°F)
Dewpoint: -4.4°C (24°F) [RH = 82%]
Pressure (altimeter): 30.20 inches Hg (1022.8 mb)
[Sea-level pressure: 1023.8 mb]
Winds: from the N (10 degrees) at 6 MPH (5 knots; 2.6 m/s)
Visibility: 10 or more miles (16+ km)
Ceiling: at least 12,000 feet AGL
Clouds: sky clear below 12,000 feet AGL
Weather: no significant weather observed at this time

METAR text: KFSD 220956Z 01005KT 10SM CLR M01/M04 A3020 RMK AO2 SLP236 T10061039
Conditions at: KFSD (SIOUX FALLS , SD, US) observed 0956 UTC 22 March 2019
Temperature: -0.6°C (31°F)
Dewpoint: -3.9°C (25°F) [RH = 78%]
Pressure (altimeter): 30.20 inches Hg (1022.8 mb)
[Sea-level pressure: 1023.6 mb]
Winds: from the N (10 degrees) at 6 MPH (5 knots; 2.6 m/s)
Visibility: 10 or more miles (16+ km)
Ceiling: at least 12,000 feet AGL
Clouds: sky clear below 12,000 feet AGL
Weather: no significant weather observed at this time

METAR text: KFSD 220856Z AUTO 01005KT 10SM CLR M01/M03 A3020 RMK AO2 SLP236 T10061028 52007
Conditions at: KFSD (SIOUX FALLS , SD, US) observed 0856 UTC 22 March 2019
Temperature: -0.6°C (31°F)
Dewpoint: -2.8°C (27°F) [RH = 85%]
Pressure (altimeter): 30.20 inches Hg (1022.8 mb)
[Sea-level pressure: 1023.6 mb]
Winds: from the N (10 degrees) at 6 MPH (5 knots; 2.6 m/s)
Visibility: 10 or more miles (16+ km)
Ceiling: at least 12,000 feet AGL
Clouds: sky clear below 12,000 feet AGL
Weather: automated observation with no human augmentation;
there may or may not be significant weather present at this time

METAR text: KFSD 220756Z AUTO 02005KT 10SM CLR M01/M02 A3019 RMK AO2 SLP235 T10061022
Conditions at: KFSD (SIOUX FALLS , SD, US) observed 0756 UTC 22 March 2019
Temperature: -0.6°C (31°F)
Dewpoint: -2.2°C (28°F) [RH = 89%]
Pressure (altimeter): 30.19 inches Hg (1022.4 mb)
[Sea-level pressure: 1023.5 mb]
Winds: from the NNE (20 degrees) at 6 MPH (5 knots; 2.6 m/s)
Visibility: 10 or more miles (16+ km)
Ceiling: at least 12,000 feet AGL
Clouds: sky clear below 12,000 feet AGL
Weather: automated observation with no human augmentation;
there may or may not be significant weather present at this time

METAR text: KFSD 220656Z AUTO 33003KT 10SM CLR 01/M01 A3018 RMK AO2 SLP232 T00061006
Conditions at: KFSD (SIOUX FALLS , SD, US) observed 0656 UTC 22 March 2019
Temperature: 0.6°C (33°F)
Dewpoint: -0.6°C (31°F) [RH = 92%]
Pressure (altimeter): 30.18 inches Hg (1022.1 mb)
[Sea-level pressure: 1023.2 mb]
Winds: from the NNW (330 degrees) at 3 MPH (3 knots; 1.5 m/s)
Visibility: 10 or more miles (16+ km)
Ceiling: at least 12,000 feet AGL
Clouds: sky clear below 12,000 feet AGL
Weather: automated observation with no human augmentation;
there may or may not be significant weather present at this time

METAR text: KFSD 220556Z AUTO 30004KT 10SM CLR 02/00 A3018 RMK AO2 SLP230 T00170000 10111 20006 401281050 51013
Conditions at: KFSD (SIOUX FALLS , SD, US) observed 0556 UTC 22 March 2019
Temperature: 1.7°C (35°F)
Dewpoint: 0.0°C (32°F) [RH = 88%]
Pressure (altimeter): 30.18 inches Hg (1022.1 mb)
[Sea-level pressure: 1023.0 mb]
Winds: from the WNW (300 degrees) at 5 MPH (4 knots; 2.1 m/s)
Visibility: 10 or more miles (16+ km)
Ceiling: at least 12,000 feet AGL
Clouds: sky clear below 12,000 feet AGL
Weather: automated observation with no human augmentation;
there may or may not be significant weather present at this time

METAR text: KFSD 220456Z 35004KT 10SM CLR 02/01 A3017 RMK AO2 SLP229 LAST T00220006
Conditions at: KFSD (SIOUX FALLS , SD, US) observed 0456 UTC 22 March 2019
Temperature: 2.2°C (36°F)
Dewpoint: 0.6°C (33°F) [RH = 89%]
Pressure (altimeter): 30.17 inches Hg (1021.8 mb)
[Sea-level pressure: 1022.9 mb]
Winds: from the N (350 degrees) at 5 MPH (4 knots; 2.1 m/s)
Visibility: 10 or more miles (16+ km)
Ceiling: at least 12,000 feet AGL
Clouds: sky clear below 12,000 feet AGL
Weather: no significant weather observed at this time

METAR text: KFSD 220356Z 00000KT 10SM CLR 02/01 A3015 RMK AO2 SLP225 T00220011
Conditions at: KFSD (SIOUX FALLS , SD, US) observed 0356 UTC 22 March 2019
Temperature: 2.2°C (36°F)
Dewpoint: 1.1°C (34°F) [RH = 92%]
Pressure (altimeter): 30.15 inches Hg (1021.1 mb)
[Sea-level pressure: 1022.5 mb]
Winds: calm
Visibility: 10 or more miles (16+ km)
Ceiling: at least 12,000 feet AGL
Clouds: sky clear below 12,000 feet AGL
Weather: no significant weather observed at this time

METAR text: KFSD 220256Z 00000KT 10SM CLR 05/02 A3014 RMK AO2 SLP219 T00500022 53005
Conditions at: KFSD (SIOUX FALLS , SD, US) observed 0256 UTC 22 March 2019
Temperature: 5.0°C (41°F)
Dewpoint: 2.2°C (36°F) [RH = 82%]
Pressure (altimeter): 30.14 inches Hg (1020.7 mb)
[Sea-level pressure: 1021.9 mb]
Winds: calm
Visibility: 10 or more miles (16+ km)
Ceiling: at least 12,000 feet AGL
Clouds: sky clear below 12,000 feet AGL
Weather: no significant weather observed at this time

METAR text: KFSD 220156Z 29003KT 10SM CLR 05/02 A3013 RMK AO2 SLP218 T00500022
Conditions at: KFSD (SIOUX FALLS , SD, US) observed 0156 UTC 22 March 2019
Temperature: 5.0°C (41°F)
Dewpoint: 2.2°C (36°F) [RH = 82%]
Pressure (altimeter): 30.13 inches Hg (1020.4 mb)
[Sea-level pressure: 1021.8 mb]
Winds: from the WNW (290 degrees) at 3 MPH (3 knots; 1.5 m/s)
Visibility: 10 or more miles (16+ km)
Ceiling: at least 12,000 feet AGL
Clouds: sky clear below 12,000 feet AGL
Weather: no significant weather observed at this time

METAR text: KFSD 220056Z 31006KT 10SM CLR 07/03 A3012 RMK AO2 SLP215 T00720033
Conditions at: KFSD (SIOUX FALLS , SD, US) observed 0056 UTC 22 March 2019
Temperature: 7.2°C (45°F)
Dewpoint: 3.3°C (38°F) [RH = 76%]
Pressure (altimeter): 30.12 inches Hg (1020.1 mb)
[Sea-level pressure: 1021.5 mb]
Winds: from the NW (310 degrees) at 7 MPH (6 knots; 3.1 m/s)
Visibility: 10 or more miles (16+ km)
Ceiling: at least 12,000 feet AGL
Clouds: sky clear below 12,000 feet AGL
Weather: no significant weather observed at this time

METAR text: KFSD 212356Z 32009KT 10SM CLR 11/04 A3012 RMK AO2 SLP213 T01110044 10128 20083 55000
Conditions at: KFSD (SIOUX FALLS , SD, US) observed 2356 UTC 21 March 2019
Temperature: 11.1°C (52°F)
Dewpoint: 4.4°C (40°F) [RH = 63%]
Pressure (altimeter): 30.12 inches Hg (1020.1 mb)
[Sea-level pressure: 1021.3 mb]
Winds: from the NW (320 degrees) at 10 MPH (9 knots; 4.6 m/s)
Visibility: 10 or more miles (16+ km)
Ceiling: at least 12,000 feet AGL
Clouds: sky clear below 12,000 feet AGL
Weather: no significant weather observed at this time

METAR text: KFSD 212256Z 30010KT 10SM CLR 12/04 A3011 RMK AO2 SLP207 T01220039
Conditions at: KFSD (SIOUX FALLS , SD, US) observed 2256 UTC 21 March 2019
Temperature: 12.2°C (54°F)
Dewpoint: 3.9°C (39°F) [RH = 57%]
Pressure (altimeter): 30.11 inches Hg (1019.7 mb)
[Sea-level pressure: 1020.7 mb]
Winds: from the WNW (300 degrees) at 12 MPH (10 knots; 5.1 m/s)
Visibility: 10 or more miles (16+ km)
Ceiling: at least 12,000 feet AGL
Clouds: sky clear below 12,000 feet AGL
Weather: no significant weather observed at this time

METAR text: KFSD 212156Z 29010KT 10SM CLR 13/04 A3011 RMK AO2 SLP208 T01280039
Conditions at: KFSD (SIOUX FALLS , SD, US) observed 2156 UTC 21 March 2019
Temperature: 12.8°C (55°F)
Dewpoint: 3.9°C (39°F) [RH = 55%]
Pressure (altimeter): 30.11 inches Hg (1019.7 mb)
[Sea-level pressure: 1020.8 mb]
Winds: from the WNW (290 degrees) at 12 MPH (10 knots; 5.1 m/s)
Visibility: 10 or more miles (16+ km)
Ceiling: at least 12,000 feet AGL
Clouds: sky clear below 12,000 feet AGL
Weather: no significant weather observed at this time

METAR text: KFSD 212056Z 28010KT 10SM CLR 12/04 A3012 RMK AO2 SLP211 T01220039 58016
Conditions at: KFSD (SIOUX FALLS , SD, US) observed 2056 UTC 21 March 2019
Temperature: 12.2°C (54°F)
Dewpoint: 3.9°C (39°F) [RH = 57%]
Pressure (altimeter): 30.12 inches Hg (1020.1 mb)
[Sea-level pressure: 1021.1 mb]
Winds: from the W (280 degrees) at 12 MPH (10 knots; 5.1 m/s)
Visibility: 10 or more miles (16+ km)
Ceiling: at least 12,000 feet AGL
Clouds: sky clear below 12,000 feet AGL
Weather: no significant weather observed at this time

METAR text: KFSD 211956Z 30011KT 10SM CLR 11/03 A3014 RMK AO2 SLP218 T01110028
Conditions at: KFSD (SIOUX FALLS , SD, US) observed 1956 UTC 21 March 2019
Temperature: 11.1°C (52°F)
Dewpoint: 2.8°C (37°F) [RH = 57%]
Pressure (altimeter): 30.14 inches Hg (1020.7 mb)
[Sea-level pressure: 1021.8 mb]
Winds: from the WNW (300 degrees) at 13 MPH (11 knots; 5.7 m/s)
Visibility: 10 or more miles (16+ km)
Ceiling: at least 12,000 feet AGL
Clouds: sky clear below 12,000 feet AGL
Weather: no significant weather observed at this time

METAR text: KFSD 211856Z 29010KT 10SM CLR 10/03 A3016 RMK AO2 SLP224 T01000028
Conditions at: KFSD (SIOUX FALLS , SD, US) observed 1856 UTC 21 March 2019
Temperature: 10.0°C (50°F)
Dewpoint: 2.8°C (37°F) [RH = 61%]
Pressure (altimeter): 30.16 inches Hg (1021.4 mb)
[Sea-level pressure: 1022.4 mb]
Winds: from the WNW (290 degrees) at 12 MPH (10 knots; 5.1 m/s)
Visibility: 10 or more miles (16+ km)
Ceiling: at least 12,000 feet AGL
Clouds: sky clear below 12,000 feet AGL
Weather: no significant weather observed at this time

METAR text: KFSD 211756Z 27009KT 240V300 10SM CLR 08/02 A3017 RMK AO2 SLP229 I6000 T00830022 10083 21050 58002
Conditions at: KFSD (SIOUX FALLS , SD, US) observed 1756 UTC 21 March 2019
Temperature: 8.3°C (47°F)
Dewpoint: 2.2°C (36°F) [RH = 65%]
Pressure (altimeter): 30.17 inches Hg (1021.8 mb)
[Sea-level pressure: 1022.9 mb]
Winds: from the W (270 degrees) at 10 MPH (9 knots; 4.6 m/s)
Visibility: 10 or more miles (16+ km)
Ceiling: at least 12,000 feet AGL
Clouds: sky clear below 12,000 feet AGL
Weather: no significant weather observed at this time

METAR text: KFSD 211656Z VRB05KT 10SM FEW010 04/01 A3017 RMK AO2 SLP233 T00440006
Conditions at: KFSD (SIOUX FALLS , SD, US) observed 1656 UTC 21 March 2019
Temperature: 4.4°C (40°F)
Dewpoint: 0.6°C (33°F) [RH = 76%]
Pressure (altimeter): 30.17 inches Hg (1021.8 mb)
[Sea-level pressure: 1023.3 mb]
Winds: variable direction winds at 6 MPH (5 knots; 2.6 m/s)
Visibility: 10 or more miles (16+ km)
Ceiling: at least 12,000 feet AGL
Clouds: few clouds at 1000 feet AGL
Weather: no significant weather observed at this time

METAR text: KFSD 211611Z 28007KT 10SM SCT004 02/00 A3018 RMK AO2 T00220000
Conditions at: KFSD (SIOUX FALLS , SD, US) observed 1611 UTC 21 March 2019
Temperature: 2.2°C (36°F)
Dewpoint: 0.0°C (32°F) [RH = 85%]
Pressure (altimeter): 30.18 inches Hg (1022.1 mb)
Winds: from the W (280 degrees) at 8 MPH (7 knots; 3.6 m/s)
Visibility: 10 or more miles (16+ km)
Ceiling: at least 12,000 feet AGL
Clouds: scattered clouds at 400 feet AGL
Weather: no significant weather observed at this time

METAR text: KFSD 211556Z 27007KT 10SM BKN004 02/M01 A3018 RMK AO2 SLP235 T00171006
Conditions at: KFSD (SIOUX FALLS , SD, US) observed 1556 UTC 21 March 2019
Temperature: 1.7°C (35°F)
Dewpoint: -0.6°C (31°F) [RH = 85%]
Pressure (altimeter): 30.18 inches Hg (1022.1 mb)
[Sea-level pressure: 1023.5 mb]
Winds: from the W (270 degrees) at 8 MPH (7 knots; 3.6 m/s)
Visibility: 10 or more miles (16+ km)
Ceiling: 400 feet AGL
Clouds: broken clouds at 400 feet AGL
Weather: no significant weather observed at this time

METAR text: KFSD 211539Z 28007KT 10SM BKN004 01/M01 A3018 RMK AO2 T00061011
Conditions at: KFSD (SIOUX FALLS , SD, US) observed 1539 UTC 21 March 2019
Temperature: 0.6°C (33°F)
Dewpoint: -1.1°C (30°F) [RH = 88%]
Pressure (altimeter): 30.18 inches Hg (1022.1 mb)
Winds: from the W (280 degrees) at 8 MPH (7 knots; 3.6 m/s)
Visibility: 10 or more miles (16+ km)
Ceiling: 400 feet AGL
Clouds: broken clouds at 400 feet AGL
Weather: no significant weather observed at this time

METAR text: KFSD 211514Z 28007KT 10SM FEW006 01/M01 A3017 RMK AO2 T00061011
Conditions at: KFSD (SIOUX FALLS , SD, US) observed 1514 UTC 21 March 2019
Temperature: 0.6°C (33°F)
Dewpoint: -1.1°C (30°F) [RH = 88%]
Pressure (altimeter): 30.17 inches Hg (1021.8 mb)
Winds: from the W (280 degrees) at 8 MPH (7 knots; 3.6 m/s)
Visibility: 10 or more miles (16+ km)
Ceiling: at least 12,000 feet AGL
Clouds: few clouds at 600 feet AGL
Weather: no significant weather observed at this time

METAR text: KFSD 211456Z 27006KT 10SM FEW010 01/M02 A3018 RMK AO2 SLP235 I3000 T00061017 57003
Conditions at: KFSD (SIOUX FALLS , SD, US) observed 1456 UTC 21 March 2019
Temperature: 0.6°C (33°F)
Dewpoint: -1.7°C (29°F) [RH = 85%]
Pressure (altimeter): 30.18 inches Hg (1022.1 mb)
[Sea-level pressure: 1023.5 mb]
Winds: from the W (270 degrees) at 7 MPH (6 knots; 3.1 m/s)
Visibility: 10 or more miles (16+ km)
Ceiling: at least 12,000 feet AGL
Clouds: few clouds at 1000 feet AGL
Weather: no significant weather observed at this time

METAR text: KFSD 211356Z 26003KT 10SM FEW010 M01/M03 A3018 RMK AO2 SLP235 T10061028
Conditions at: KFSD (SIOUX FALLS , SD, US) observed 1356 UTC 21 March 2019
Temperature: -0.6°C (31°F)
Dewpoint: -2.8°C (27°F) [RH = 85%]
Pressure (altimeter): 30.18 inches Hg (1022.1 mb)
[Sea-level pressure: 1023.5 mb]
Winds: from the W (260 degrees) at 3 MPH (3 knots; 1.5 m/s)
Visibility: 10 or more miles (16+ km)
Ceiling: at least 12,000 feet AGL
Clouds: few clouds at 1000 feet AGL
Weather: no significant weather observed at this time

METAR text: KFSD 211256Z 22003KT 10SM CLR M03/M04 A3019 RMK AO2 SLP239 I1000 T10281039
Conditions at: KFSD (SIOUX FALLS , SD, US) observed 1256 UTC 21 March 2019
Temperature: -2.8°C (27°F)
Dewpoint: -3.9°C (25°F) [RH = 92%]
Pressure (altimeter): 30.19 inches Hg (1022.4 mb)
[Sea-level pressure: 1023.9 mb]
Winds: from the SW (220 degrees) at 3 MPH (3 knots; 1.5 m/s)
Visibility: 10 or more miles (16+ km)
Ceiling: at least 12,000 feet AGL
Clouds: sky clear below 12,000 feet AGL
Weather: no significant weather observed at this time

METAR text: KFSD 211156Z 00000KT 10SM CLR M04/M06 A3019 RMK AO2 SLP239 I1000 I6000 T10441056 11006 21044 58001
Conditions at: KFSD (SIOUX FALLS , SD, US) observed 1156 UTC 21 March 2019
Temperature: -4.4°C (24°F)
Dewpoint: -5.6°C (22°F) [RH = 91%]
Pressure (altimeter): 30.19 inches Hg (1022.4 mb)
[Sea-level pressure: 1023.9 mb]
Winds: calm
Visibility: 10 or more miles (16+ km)
Ceiling: at least 12,000 feet AGL
Clouds: sky clear below 12,000 feet AGL
Weather: no significant weather observed at this time

METAR text: KFSD 211056Z 26003KT 10SM CLR M02/M04 A3019 RMK AO2 SLP238 I1000 T10221039
Conditions at: KFSD (SIOUX FALLS , SD, US) observed 1056 UTC 21 March 2019
Temperature: -2.2°C (28°F)
Dewpoint: -3.9°C (25°F) [RH = 88%]
Pressure (altimeter): 30.19 inches Hg (1022.4 mb)
[Sea-level pressure: 1023.8 mb]
Winds: from the W (260 degrees) at 3 MPH (3 knots; 1.5 m/s)
Visibility: 10 or more miles (16+ km)
Ceiling: at least 12,000 feet AGL
Clouds: sky clear below 12,000 feet AGL
Weather: no significant weather observed at this time

METAR text: KFSD 210956Z 00000KT 10SM CLR M02/M04 A3019 RMK AO2 SLP236 I1000 T10221039
Conditions at: KFSD (SIOUX FALLS , SD, US) observed 0956 UTC 21 March 2019
Temperature: -2.2°C (28°F)
Dewpoint: -3.9°C (25°F) [RH = 88%]
Pressure (altimeter): 30.19 inches Hg (1022.4 mb)
[Sea-level pressure: 1023.6 mb]
Winds: calm
Visibility: 10 or more miles (16+ km)
Ceiling: at least 12,000 feet AGL
Clouds: sky clear below 12,000 feet AGL
Weather: no significant weather observed at this time

METAR text: KFSD 210856Z AUTO 00000KT 10SM CLR M02/M03 A3019 RMK AO2 SLP237 I1000 I3000 T10171033 50000
Conditions at: KFSD (SIOUX FALLS , SD, US) observed 0856 UTC 21 March 2019
Temperature: -1.7°C (29°F)
Dewpoint: -3.3°C (26°F) [RH = 89%]
Pressure (altimeter): 30.19 inches Hg (1022.4 mb)
[Sea-level pressure: 1023.7 mb]
Winds: calm
Visibility: 10 or more miles (16+ km)
Ceiling: at least 12,000 feet AGL
Clouds: sky clear below 12,000 feet AGL
Weather: automated observation with no human augmentation;
there may or may not be significant weather present at this time

METAR text: KFSD 210756Z AUTO 30004KT 10SM CLR M02/M03 A3020 RMK AO2 SLP238 T10171033
Conditions at: KFSD (SIOUX FALLS , SD, US) observed 0756 UTC 21 March 2019
Temperature: -1.7°C (29°F)
Dewpoint: -3.3°C (26°F) [RH = 89%]
Pressure (altimeter): 30.20 inches Hg (1022.8 mb)
[Sea-level pressure: 1023.8 mb]
Winds: from the WNW (300 degrees) at 5 MPH (4 knots; 2.1 m/s)
Visibility: 10 or more miles (16+ km)
Ceiling: at least 12,000 feet AGL
Clouds: sky clear below 12,000 feet AGL
Weather: automated observation with no human augmentation;
there may or may not be significant weather present at this time

METAR text: KFSD 210656Z AUTO 27003KT 10SM CLR M01/M03 A3020 RMK AO2 SLP238 T10111028
Conditions at: KFSD (SIOUX FALLS , SD, US) observed 0656 UTC 21 March 2019
Temperature: -1.1°C (30°F)
Dewpoint: -2.8°C (27°F) [RH = 88%]
Pressure (altimeter): 30.20 inches Hg (1022.8 mb)
[Sea-level pressure: 1023.8 mb]
Winds: from the W (270 degrees) at 3 MPH (3 knots; 1.5 m/s)
Visibility: 10 or more miles (16+ km)
Ceiling: at least 12,000 feet AGL
Clouds: sky clear below 12,000 feet AGL
Weather: automated observation with no human augmentation;
there may or may not be significant weather present at this time

METAR text: KFSD 210556Z AUTO 30004KT 10SM CLR M01/M02 A3019 RMK AO2 SLP236 T10061022 10056 21006 400941006 51007
Conditions at: KFSD (SIOUX FALLS , SD, US) observed 0556 UTC 21 March 2019
Temperature: -0.6°C (31°F)
Dewpoint: -2.2°C (28°F) [RH = 89%]
Pressure (altimeter): 30.19 inches Hg (1022.4 mb)
[Sea-level pressure: 1023.6 mb]
Winds: from the WNW (300 degrees) at 5 MPH (4 knots; 2.1 m/s)
Visibility: 10 or more miles (16+ km)
Ceiling: at least 12,000 feet AGL
Clouds: sky clear below 12,000 feet AGL
Weather: automated observation with no human augmentation;
there may or may not be significant weather present at this time

METAR text: KFSD 210456Z 33005KT 10SM CLR 00/M02 A3018 RMK AO2 SLP233 LAST T00001017
Conditions at: KFSD (SIOUX FALLS , SD, US) observed 0456 UTC 21 March 2019
Temperature: 0.0°C (32°F)
Dewpoint: -1.7°C (29°F) [RH = 88%]
Pressure (altimeter): 30.18 inches Hg (1022.1 mb)
[Sea-level pressure: 1023.3 mb]
Winds: from the NNW (330 degrees) at 6 MPH (5 knots; 2.6 m/s)
Visibility: 10 or more miles (16+ km)
Ceiling: at least 12,000 feet AGL
Clouds: sky clear below 12,000 feet AGL
Weather: no significant weather observed at this time

METAR text: KFSD 210356Z 33006KT 10SM CLR 01/M01 A3018 RMK AO2 SLP235 T00111011
Conditions at: KFSD (SIOUX FALLS , SD, US) observed 0356 UTC 21 March 2019
Temperature: 1.1°C (34°F)
Dewpoint: -1.1°C (30°F) [RH = 85%]
Pressure (altimeter): 30.18 inches Hg (1022.1 mb)
[Sea-level pressure: 1023.5 mb]
Winds: from the NNW (330 degrees) at 7 MPH (6 knots; 3.1 m/s)
Visibility: 10 or more miles (16+ km)
Ceiling: at least 12,000 feet AGL
Clouds: sky clear below 12,000 feet AGL
Weather: no significant weather observed at this time

METAR text: KFSD 210256Z 33007KT 10SM CLR 02/M01 A3017 RMK AO2 SLP230 T00171011 51020
Conditions at: KFSD (SIOUX FALLS , SD, US) observed 0256 UTC 21 March 2019
Temperature: 1.7°C (35°F)
Dewpoint: -1.1°C (30°F) [RH = 82%]
Pressure (altimeter): 30.17 inches Hg (1021.8 mb)
[Sea-level pressure: 1023.0 mb]
Winds: from the NNW (330 degrees) at 8 MPH (7 knots; 3.6 m/s)
Visibility: 10 or more miles (16+ km)
Ceiling: at least 12,000 feet AGL
Clouds: sky clear below 12,000 feet AGL
Weather: no significant weather observed at this time

METAR text: KFSD 210156Z 33010KT 10SM CLR 02/M01 A3015 RMK AO2 SLP225 T00221011
Conditions at: KFSD (SIOUX FALLS , SD, US) observed 0156 UTC 21 March 2019
Temperature: 2.2°C (36°F)
Dewpoint: -1.1°C (30°F) [RH = 79%]
Pressure (altimeter): 30.15 inches Hg (1021.1 mb)
[Sea-level pressure: 1022.5 mb]
Winds: from the NNW (330 degrees) at 12 MPH (10 knots; 5.1 m/s)
Visibility: 10 or more miles (16+ km)
Ceiling: at least 12,000 feet AGL
Clouds: sky clear below 12,000 feet AGL
Weather: no significant weather observed at this time

METAR text: KFSD 210056Z 34010KT 10SM CLR 03/M01 A3013 RMK AO2 SLP218 T00331006
Conditions at: KFSD (SIOUX FALLS , SD, US) observed 0056 UTC 21 March 2019
Temperature: 3.3°C (38°F)
Dewpoint: -0.6°C (31°F) [RH = 76%]
Pressure (altimeter): 30.13 inches Hg (1020.4 mb)
[Sea-level pressure: 1021.8 mb]
Winds: from the NNW (340 degrees) at 12 MPH (10 knots; 5.1 m/s)
Visibility: 10 or more miles (16+ km)
Ceiling: at least 12,000 feet AGL
Clouds: sky clear below 12,000 feet AGL
Weather: no significant weather observed at this time

Forecast for: KFSD (SIOUX FALLS , SD, US)
Text: KFSD 221120Z 2212/2312 01005KT P6SM SKC
Forecast period: 1200 to 1600 UTC 22 March 2019
Forecast type: FROM: standard forecast or significant change
Winds: from the N (10 degrees) at 6 MPH (5 knots; 2.6 m/s)
Visibility: 6 or more miles 10+ km)
Clouds: clear skies
Weather: no significant weather forecast for this period
Text: FM221600 06005KT P6SM SKC
Forecast period: 1600 to 1900 UTC 22 March 2019
Forecast type: FROM: standard forecast or significant change
Winds: from the ENE (60 degrees) at 6 MPH (5 knots; 2.6 m/s)
Visibility: 6 or more miles 10+ km)
Clouds: clear skies
Weather: no significant weather forecast for this period
Text: FM221900 09006KT P6SM SKC
Forecast period: 1900 UTC 22 March 2019 to 0800 UTC 23 March 2019
Forecast type: FROM: standard forecast or significant change
Winds: from the E (90 degrees) at 7 MPH (6 knots; 3.1 m/s)
Visibility: 6 or more miles 10+ km)
Clouds: clear skies
Weather: no significant weather forecast for this period
Text: FM230800 12006KT P6SM SCT200
Forecast period: 0800 to 1200 UTC 23 March 2019
Forecast type: FROM: standard forecast or significant change
Winds: from the ESE (120 degrees) at 7 MPH (6 knots; 3.1 m/s)
Visibility: 6 or more miles 10+ km)
Ceiling: at least 12,000 feet AGL
Clouds: scattered clouds at 20000 feet AGL
Weather: no significant weather forecast for this period